METAR AND TAF INFORMATION
METAR FOR KBUF
ADDS - METARS form results

(2326 UTC 18 January 2021)
Data provider http://aviationweather.gov/metar/data/
 
METAR text: KBUF 182307Z 27007KT 10SM BKN022 BKN026 OVC075 01/M02 A2985 RMK AO2 T00061022 $
Conditions at: KBUF (BUFFALO/CHEEKTOW, NY, US) observed 2307 UTC 18 January 2021
Temperature: 0.6°C (33°F)
Dewpoint: -2.2°C (28°F) [RH = 81%]
Pressure (altimeter): 29.85 inches Hg (1010.9 mb)
Winds: from the W (270 degrees) at 8 MPH (7 knots; 3.6 m/s)
Visibility: 10 or more miles (16+ km)
Ceiling: 2200 feet AGL
Clouds: broken clouds at 2200 feet AGL
broken clouds at 2600 feet AGL
overcast cloud deck at 7500 feet AGL
Weather:
SOME DATA ABOVE MAY BE INACCURATE!!!
"$" is an indication the sensor requires maintenance

METAR text: KBUF 182254Z 26008KT 10SM SCT013 BKN036 OVC070 01/M02 A2984 RMK AO2 SNE52 SLP113 P0000 T00061022 $
Conditions at: KBUF (BUFFALO/CHEEKTOW, NY, US) observed 2254 UTC 18 January 2021
Temperature: 0.6°C (33°F)
Dewpoint: -2.2°C (28°F) [RH = 81%]
Pressure (altimeter): 29.84 inches Hg (1010.6 mb)
[Sea-level pressure: 1011.3 mb]
Winds: from the W (260 degrees) at 9 MPH (8 knots; 4.1 m/s)
Visibility: 10 or more miles (16+ km)
Ceiling: 3600 feet AGL
Clouds: scattered clouds at 1300 feet AGL
broken clouds at 3600 feet AGL
overcast cloud deck at 7000 feet AGL
Weather:
SOME DATA ABOVE MAY BE INACCURATE!!!
"$" is an indication the sensor requires maintenance

METAR text: KBUF 182240Z 27009KT 10SM -SN SCT013 SCT030 OVC046 01/M02 A2983 RMK AO2 PCPN VRY LGT P0000 T00061022 $
Conditions at: KBUF (BUFFALO/CHEEKTOW, NY, US) observed 2240 UTC 18 January 2021
Temperature: 0.6°C (33°F)
Dewpoint: -2.2°C (28°F) [RH = 81%]
Pressure (altimeter): 29.83 inches Hg (1010.2 mb)
Winds: from the W (270 degrees) at 10 MPH (9 knots; 4.6 m/s)
Visibility: 10 or more miles (16+ km)
Ceiling: 4600 feet AGL
Clouds: scattered clouds at 1300 feet AGL
scattered clouds at 3000 feet AGL
overcast cloud deck at 4600 feet AGL
Weather: -SN  (light snow)
SOME DATA ABOVE MAY BE INACCURATE!!!
"$" is an indication the sensor requires maintenance

METAR text: KBUF 182233Z 27009KT 10SM -SN SCT013 BKN029 OVC075 01/M02 A2983 RMK AO2 PCPN VRY LGT P0000 T00061017 $
Conditions at: KBUF (BUFFALO/CHEEKTOW, NY, US) observed 2233 UTC 18 January 2021
Temperature: 0.6°C (33°F)
Dewpoint: -1.7°C (29°F) [RH = 85%]
Pressure (altimeter): 29.83 inches Hg (1010.2 mb)
Winds: from the W (270 degrees) at 10 MPH (9 knots; 4.6 m/s)
Visibility: 10 or more miles (16+ km)
Ceiling: 2900 feet AGL
Clouds: scattered clouds at 1300 feet AGL
broken clouds at 2900 feet AGL
overcast cloud deck at 7500 feet AGL
Weather: -SN  (light snow)
SOME DATA ABOVE MAY BE INACCURATE!!!
"$" is an indication the sensor requires maintenance

Forecast for: KBUF (BUFFALO/CHEEKTOW, NY, US)
Text: KBUF 182320Z 1900/1924 25008KT 5SM -SHSN OVC025
Forecast period: 0000 to 0500 UTC 19 January 2021
Forecast type: FROM: standard forecast or significant change
Winds: from the WSW (250 degrees) at 9 MPH (8 knots; 4.1 m/s)
Visibility: 5 miles (8 km)
Ceiling: 2500 feet AGL
Clouds: overcast cloud deck at 2500 feet AGL
Weather: -SHSN  (light snow showers)
Text: FM190500 26010KT 2SM -SHSN OVC015
Forecast period: 0500 to 1400 UTC 19 January 2021
Forecast type: FROM: standard forecast or significant change
Winds: from the W (260 degrees) at 12 MPH (10 knots; 5.1 m/s)
Visibility: 2.00 miles (3.22 km)
Ceiling: 1500 feet AGL
Clouds: overcast cloud deck at 1500 feet AGL
Weather: -SHSN  (light snow showers)
Text: FM191400 25014G22KT 2SM -SHSN OVC015
Forecast period: 1400 to 1800 UTC 19 January 2021
Forecast type: FROM: standard forecast or significant change
Winds: from the WSW (250 degrees) at 16 MPH (14 knots; 7.2 m/s)
gusting to 25 MPH (22 knots; 11.3 m/s)
Visibility: 2.00 miles (3.22 km)
Ceiling: 1500 feet AGL
Clouds: overcast cloud deck at 1500 feet AGL
Weather: -SHSN  (light snow showers)
Text: FM191800 25018G26KT 3SM -SHSN BLSN OVC025
Forecast period: 1800 UTC 19 January 2021 to 0000 UTC 20 January 2021
Forecast type: FROM: standard forecast or significant change
Winds: from the WSW (250 degrees) at 21 MPH (18 knots; 9.3 m/s)
gusting to 30 MPH (26 knots; 13.4 m/s)
Visibility: 3 miles (5 km)
Ceiling: 2500 feet AGL
Clouds: overcast cloud deck at 2500 feet AGL
Weather: -SHSN BLSN  (light snow showers, blowing snow)

 AIRPORT MAP

 RUNWAY INFORMATION
Runway 05 Runway length 8102 ft Runway width 150 ft
Runway elevation 679 ft Runway displaced threshold 324 ft Runway heading 44
Runway 23 Runway length 8102 ft Runway width 150 ft
Runway elevation 721 ft Runway displaced threshold 0 ft Runway heading 224
Runway 14 Runway length 7161 ft Runway width 150 ft
Runway elevation 698 ft Runway displaced threshold 320 ft Runway heading 127
Runway 32 Runway length 7161 ft Runway width 150 ft
Runway elevation 709 ft Runway displaced threshold 720 ft Runway heading 307

 AIRPORT FREQUENCIES
Type A/D Name APP/DEP Frequency 126.15 MHZ
Type ATIS Name ATIS Frequency 135.35 MHZ
Type CLD Name CLNC DEL Frequency 124.7 MHZ
Type GND Name GND Frequency 121.9 MHZ
Type RDO Name RDO Frequency 122.6 MHZ
Type TWR Name TWR Frequency 120.5 MHZ

 AIRPORT NEAR NAVIGATION AIDS
Type NDB Name Klump Frequency 231 KHZ
Type VOR-DME Name Buffalo Frequency 116400 KHZ
Type NDB Name Plazz Frequency 204 KHZ



Powered by Virtual Airlines Manager [[v2.6.2]]